createdAt,value
2022-10-13T00:01:19.289Z,100325.19
2022-10-13T00:02:51.330Z,100323.72
2022-10-13T00:04:23.183Z,100322.16
2022-10-13T00:05:55.107Z,100323.41
2022-10-13T00:07:26.948Z,100324.00
2022-10-13T00:08:58.928Z,100319.66
2022-10-13T00:10:30.773Z,100318.94
2022-10-13T00:12:02.673Z,100327.13
2022-10-13T00:13:34.555Z,100322.25
2022-10-13T00:15:07.227Z,100314.06
2022-10-13T00:16:39.703Z,100325.50
2022-10-13T00:18:12.019Z,100321.94
2022-10-13T00:19:43.858Z,100324.31
2022-10-13T00:21:18.315Z,100318.16
2022-10-13T00:22:50.586Z,100323.44
2022-10-13T00:24:22.547Z,100319.13
2022-10-13T00:25:54.558Z,100317.66
2022-10-13T00:27:26.438Z,100318.63
2022-10-13T00:28:58.338Z,100308.13
2022-10-13T00:30:33.641Z,100318.31
2022-10-13T00:32:05.500Z,100318.16
2022-10-13T00:33:37.462Z,100320.31
2022-10-13T00:35:09.654Z,100313.97
2022-10-13T00:36:41.566Z,100316.88
2022-10-13T00:38:13.836Z,100314.88
2022-10-13T00:39:45.740Z,100313.25
2022-10-13T00:41:19.241Z,100315.59
2022-10-13T00:42:51.157Z,100314.88
2022-10-13T00:44:42.236Z,100316.16
2022-10-13T00:46:14.803Z,100319.44
2022-10-13T00:47:48.441Z,100311.25
2022-10-13T00:49:20.352Z,100319.28
2022-10-13T00:50:54.336Z,100320.41
2022-10-13T00:52:27.108Z,100312.63
2022-10-13T00:53:59.507Z,100313.03
2022-10-13T00:55:33.160Z,100320.72
2022-10-13T00:57:06.010Z,100318.41
2022-10-13T00:58:39.161Z,100315.19
2022-10-13T01:00:11.350Z,100311.41
2022-10-13T01:01:43.326Z,100301.47
2022-10-13T01:03:15.210Z,100307.84
2022-10-13T01:04:47.582Z,100306.66
2022-10-13T01:06:23.392Z,100306.41
2022-10-13T01:07:56.203Z,100303.72
2022-10-13T01:09:35.038Z,100305.06
2022-10-13T01:11:10.140Z,100306.38
2022-10-13T01:13:04.637Z,100307.91
2022-10-13T01:14:42.317Z,100298.50
2022-10-13T01:16:26.436Z,100300.16
2022-10-13T01:18:07.371Z,100301.13
2022-10-13T01:19:57.927Z,100300.44
2022-10-13T01:21:46.233Z,100302.09
2022-10-13T01:23:20.847Z,100299.56
2022-10-13T01:24:56.743Z,100299.06
2022-10-13T01:26:45.269Z,100290.75
2022-10-13T01:28:26.433Z,100297.13
2022-10-13T01:30:06.457Z,100290.63
2022-10-13T01:31:52.167Z,100296.41
2022-10-13T01:33:30.089Z,100296.09
2022-10-13T01:35:16.982Z,100294.44
2022-10-13T01:36:48.943Z,100291.38
2022-10-13T01:38:23.710Z,100285.59
2022-10-13T01:40:07.260Z,100291.22
2022-10-13T01:41:40.696Z,100284.16
2022-10-13T01:43:22.257Z,100284.53
2022-10-13T01:44:58.606Z,100282.19
2022-10-13T01:46:32.784Z,100288.00
2022-10-13T01:48:05.647Z,100285.47
2022-10-13T01:49:38.550Z,100279.13
2022-10-13T01:51:13.086Z,100276.63
2022-10-13T01:52:45.646Z,100281.16
2022-10-13T01:54:17.991Z,100272.81
2022-10-13T01:55:54.125Z,100281.53
2022-10-13T01:57:36.703Z,100274.47
2022-10-13T01:59:10.427Z,100277.19
2022-10-13T02:00:46.049Z,100267.41
2022-10-13T02:02:18.117Z,100267.78
2022-10-13T02:03:56.141Z,100268.53
2022-10-13T02:05:37.212Z,100268.53
2022-10-13T02:07:20.320Z,100266.69
2022-10-13T02:08:58.304Z,100268.31
2022-10-13T02:10:30.168Z,100273.19
2022-10-13T02:12:05.553Z,100268.47
2022-10-13T02:13:41.879Z,100267.22
2022-10-13T02:15:17.967Z,100266.69
2022-10-13T02:16:52.025Z,100261.78
2022-10-13T02:18:26.509Z,100264.31
2022-10-13T02:19:58.497Z,100255.28
2022-10-13T02:21:30.976Z,100261.97
2022-10-13T02:23:09.350Z,100255.09
2022-10-13T02:24:41.715Z,100254.94
2022-10-13T02:26:14.099Z,100253.47
2022-10-13T02:27:46.060Z,100249.28
2022-10-13T02:29:19.047Z,100252.75
2022-10-13T02:30:51.387Z,100254.00
2022-10-13T02:32:23.691Z,100258.00
2022-10-13T02:33:58.361Z,100251.69
2022-10-13T02:35:31.077Z,100252.41
2022-10-13T02:37:07.018Z,100252.56
2022-10-13T02:38:38.905Z,100251.47
2022-10-13T02:40:11.211Z,100255.09
2022-10-13T02:41:43.149Z,100243.31
2022-10-13T02:43:15.308Z,100248.75
2022-10-13T02:44:47.159Z,100248.56
2022-10-13T02:46:19.078Z,100243.72
2022-10-13T02:47:50.922Z,100245.13
2022-10-13T02:49:22.815Z,100241.34
2022-10-13T02:50:54.708Z,100245.66
2022-10-13T02:52:26.700Z,100246.56
2022-10-13T02:53:58.774Z,100241.28
2022-10-13T02:55:30.857Z,100245.63
2022-10-13T02:57:02.690Z,100240.19
2022-10-13T02:58:35.093Z,100241.50
2022-10-13T03:00:07.572Z,100244.94
2022-10-13T03:01:41.801Z,100241.50
2022-10-13T03:03:13.709Z,100251.44
2022-10-13T03:04:45.852Z,100247.84
2022-10-13T03:06:17.920Z,100240.94
2022-10-13T03:07:49.982Z,100241.69
2022-10-13T03:09:21.839Z,100243.84
2022-10-13T03:10:53.839Z,100242.78
2022-10-13T03:12:25.706Z,100248.22
2022-10-13T03:13:57.654Z,100246.44
2022-10-13T03:15:29.552Z,100255.66
2022-10-13T03:17:06.987Z,100250.59
2022-10-13T03:18:40.635Z,100250.97
2022-10-13T03:20:12.495Z,100249.72
2022-10-13T03:21:44.330Z,100247.72
2022-10-13T03:23:16.236Z,100252.44
2022-10-13T03:24:48.080Z,100249.72
2022-10-13T03:26:20.106Z,100251.91
2022-10-13T03:27:52.000Z,100256.75
2022-10-13T03:29:24.142Z,100250.78
2022-10-13T03:31:03.344Z,100250.44
2022-10-13T03:32:35.248Z,100255.47
2022-10-13T03:34:07.320Z,100253.50
2022-10-13T03:35:39.283Z,100251.69
2022-10-13T03:37:11.329Z,100251.16
2022-10-13T03:38:46.630Z,100255.28
2022-10-13T03:40:18.483Z,100252.03
2022-10-13T03:41:50.470Z,100250.56
2022-10-13T03:43:22.760Z,100249.16
2022-10-13T03:44:56.492Z,100244.41
2022-10-13T03:46:29.847Z,100249.69
2022-10-13T03:48:03.308Z,100252.41
2022-10-13T03:49:35.164Z,100245.53
2022-10-13T03:51:08.075Z,100249.31
2022-10-13T03:52:39.923Z,100248.59
2022-10-13T03:54:12.869Z,100251.31
2022-10-13T03:55:51.265Z,100251.84
2022-10-13T03:57:23.225Z,100256.59
2022-10-13T03:58:56.266Z,100256.59
2022-10-13T04:00:28.292Z,100253.69
2022-10-13T04:02:00.180Z,100252.41
2022-10-13T04:03:33.252Z,100254.97
2022-10-13T04:05:05.259Z,100249.34
2022-10-13T04:06:37.218Z,100239.59
2022-10-13T04:08:09.049Z,100242.66
2022-10-13T04:09:40.967Z,100239.22
2022-10-13T04:11:13.853Z,100239.00
2022-10-13T04:12:48.846Z,100235.44
2022-10-13T04:14:20.800Z,100238.66
2022-10-13T04:15:52.761Z,100236.31
2022-10-13T04:17:24.604Z,100239.41
2022-10-13T04:18:58.533Z,100231.06
2022-10-13T04:20:30.342Z,100236.88
2022-10-13T04:22:02.229Z,100234.00
2022-10-13T04:23:34.053Z,100241.41
2022-10-13T04:25:06.629Z,100238.69
2022-10-13T04:26:38.789Z,100237.44
2022-10-13T04:28:13.705Z,100229.13
2022-10-13T04:29:45.786Z,100247.56
2022-10-13T04:31:17.834Z,100238.69
2022-10-13T04:32:49.674Z,100244.69
2022-10-13T04:34:22.200Z,100238.16
2022-10-13T04:35:54.017Z,100251.22
2022-10-13T04:37:25.959Z,100237.06
2022-10-13T04:38:57.824Z,100245.94
2022-10-13T04:40:29.771Z,100244.66
2022-10-13T04:42:01.689Z,100241.94
2022-10-13T04:43:35.017Z,100239.78
2022-10-13T04:45:07.562Z,100249.91
2022-10-13T04:46:39.515Z,100251.91
2022-10-13T04:48:11.547Z,100245.94
2022-10-13T04:49:43.511Z,100239.94
2022-10-13T04:51:16.777Z,100242.50
2022-10-13T04:52:48.751Z,100247.19
2022-10-13T04:54:20.814Z,100249.03
2022-10-13T04:55:52.789Z,100245.41
2022-10-13T04:57:24.641Z,100246.13
2022-10-13T04:58:56.580Z,100245.41
2022-10-13T05:00:28.459Z,100245.19
2022-10-13T05:02:00.438Z,100243.94
2022-10-13T05:03:32.867Z,100243.03
2022-10-13T05:05:05.356Z,100241.63
2022-10-13T05:06:53.337Z,100238.72
2022-10-13T05:08:30.364Z,100249.91
2022-10-13T05:10:02.367Z,100240.16
2022-10-13T05:11:35.672Z,100241.63
2022-10-13T05:13:07.592Z,100244.84
2022-10-13T05:14:39.559Z,100246.13
2022-10-13T05:16:13.292Z,100250.28
2022-10-13T05:17:45.280Z,100253.00
2022-10-13T05:19:17.307Z,100247.41
2022-10-13T05:20:49.313Z,100249.03
2022-10-13T05:22:21.587Z,100247.78
2022-10-13T05:23:56.064Z,100246.47
2022-10-13T05:25:31.558Z,100248.47
2022-10-13T05:27:10.403Z,100248.84
2022-10-13T05:28:42.582Z,100245.78
2022-10-13T05:30:14.527Z,100250.28
2022-10-13T05:31:46.416Z,100246.44
2022-10-13T05:33:18.321Z,100248.28
2022-10-13T05:34:50.209Z,100241.72
2022-10-13T05:36:23.327Z,100244.09
2022-10-13T05:37:55.187Z,100241.72
2022-10-13T05:39:27.300Z,100252.97
2022-10-13T05:41:16.998Z,100249.13
2022-10-13T05:42:51.630Z,100259.66
2022-10-13T05:44:24.795Z,100254.38
2022-10-13T05:46:01.288Z,100255.66
2022-10-13T05:47:34.355Z,100252.94
2022-10-13T05:49:06.306Z,100251.50
2022-10-13T05:50:38.186Z,100250.03
2022-10-13T05:52:11.881Z,100250.94
2022-10-13T05:53:51.018Z,100245.53
2022-10-13T05:55:25.362Z,100248.44
2022-10-13T05:56:59.530Z,100249.84
2022-10-13T05:58:34.967Z,100249.84
2022-10-13T06:00:07.102Z,100250.03
2022-10-13T06:01:46.920Z,100252.94
2022-10-13T06:03:21.088Z,100254.00
2022-10-13T06:04:55.688Z,100259.22
2022-10-13T06:06:31.260Z,100260.66
2022-10-13T06:08:03.690Z,100265.91
2022-10-13T06:09:37.971Z,100268.06
2022-10-13T06:11:10.042Z,100265.91
2022-10-13T06:12:41.906Z,100265.19
2022-10-13T06:14:13.842Z,100278.22
2022-10-13T06:15:45.693Z,100274.91
2022-10-13T06:17:17.602Z,100273.38
2022-10-13T06:18:49.969Z,100274.34
2022-10-13T06:20:22.107Z,100278.06
2022-10-13T06:21:54.165Z,100276.78
2022-10-13T06:23:26.120Z,100276.03
2022-10-13T06:24:58.031Z,100278.84
2022-10-13T06:26:30.130Z,100269.50
2022-10-13T06:28:02.066Z,100273.81
2022-10-13T06:29:34.036Z,100277.31
2022-10-13T06:31:06.678Z,100280.75
2022-10-13T06:32:38.615Z,100285.47
2022-10-13T06:34:10.539Z,100277.31
2022-10-13T06:35:42.499Z,100288.38
2022-10-13T06:37:17.010Z,100276.88
2022-10-13T06:38:49.311Z,100273.34
2022-10-13T06:40:23.929Z,100284.44
2022-10-13T06:41:55.890Z,100272.72
2022-10-13T06:43:39.979Z,100274.72
2022-10-13T06:45:15.454Z,100281.94
2022-10-13T06:46:47.289Z,100280.28
2022-10-13T06:48:19.250Z,100274.72
2022-10-13T06:49:51.092Z,100275.47
2022-10-13T06:51:24.302Z,100274.06
2022-10-13T06:52:56.856Z,100267.50
2022-10-13T06:54:29.035Z,100271.34
2022-10-13T06:56:01.944Z,100269.34
2022-10-13T06:57:33.946Z,100271.47
2022-10-13T06:59:08.470Z,100272.31
2022-10-13T07:00:43.065Z,100274.78
2022-10-13T07:02:15.572Z,100276.34
2022-10-13T07:03:51.362Z,100270.06
2022-10-13T07:05:25.986Z,100262.88
2022-10-13T07:06:58.029Z,100270.94
2022-10-13T07:08:30.228Z,100266.38
2022-10-13T07:10:02.226Z,100265.06
2022-10-13T07:11:34.799Z,100268.81
2022-10-13T07:13:06.846Z,100262.22
2022-10-13T07:14:41.693Z,100271.00
2022-10-13T07:16:16.136Z,100272.84
2022-10-13T07:17:48.046Z,100273.56
2022-10-13T07:19:20.081Z,100262.31
2022-10-13T07:20:51.893Z,100268.78
2022-10-13T07:22:23.914Z,100264.59
2022-10-13T07:23:56.327Z,100261.91
2022-10-13T07:25:28.382Z,100266.53
2022-10-13T07:27:03.948Z,100267.09
2022-10-13T07:28:39.272Z,100262.91
2022-10-13T07:30:12.141Z,100260.59
2022-10-13T07:31:44.678Z,100270.53
2022-10-13T07:33:16.600Z,100261.47
2022-10-13T07:34:51.513Z,100267.31
2022-10-13T07:36:23.356Z,100261.16
2022-10-13T07:37:56.294Z,100266.59
2022-10-13T07:39:28.208Z,100258.88
2022-10-13T07:41:01.246Z,100259.47
2022-10-13T07:42:33.371Z,100255.44
2022-10-13T07:44:05.318Z,100264.06
2022-10-13T07:45:37.299Z,100258.88
2022-10-13T07:47:09.419Z,100255.16
2022-10-13T07:48:41.534Z,100252.72
2022-10-13T07:50:13.466Z,100255.44
2022-10-13T07:51:45.405Z,100249.53
2022-10-13T07:53:17.317Z,100252.13
2022-10-13T07:54:49.869Z,100250.13
2022-10-13T07:56:21.946Z,100246.38
2022-10-13T07:57:53.839Z,100250.41
2022-10-13T07:59:25.989Z,100245.25
2022-10-13T08:01:01.280Z,100249.38
2022-10-13T08:02:34.031Z,100248.09
2022-10-13T08:04:07.909Z,100254.28
2022-10-13T08:05:40.567Z,100248.66
2022-10-13T08:07:12.519Z,100245.34
2022-10-13T08:08:44.510Z,100250.81
2022-10-13T08:10:17.594Z,100249.69
2022-10-13T08:11:49.593Z,100250.50
2022-10-13T08:13:21.506Z,100253.81
2022-10-13T08:14:53.423Z,100245.47
2022-10-13T08:16:25.297Z,100258.56
2022-10-13T08:17:57.170Z,100253.22
2022-10-13T08:19:30.180Z,100246.72
2022-10-13T08:22:54.855Z,100246.72
2022-10-13T08:24:27.322Z,100253.94
2022-10-13T08:25:59.279Z,100255.06
2022-10-13T08:27:47.879Z,100252.50
2022-10-13T08:29:23.859Z,100243.56
2022-10-13T08:30:59.896Z,100242.28
2022-10-13T08:32:32.073Z,100249.75
2022-10-13T08:34:04.021Z,100248.59
2022-10-13T08:35:35.898Z,100243.84
2022-10-13T08:37:12.940Z,100245.88
2022-10-13T08:38:45.299Z,100246.31
2022-10-13T08:40:19.503Z,100245.44
2022-10-13T08:41:52.088Z,100244.16
2022-10-13T08:43:24.472Z,100245.75
2022-10-13T08:45:22.259Z,100240.28
2022-10-13T08:47:07.081Z,100248.75
2022-10-13T08:48:41.749Z,100244.38
2022-10-13T08:50:15.546Z,100244.16
2022-10-13T08:51:47.497Z,100247.19
2022-10-13T08:53:19.467Z,100243.00
2022-10-13T08:54:54.309Z,100245.75
2022-10-13T08:56:30.761Z,100237.84
2022-10-13T08:58:06.682Z,100241.72
2022-10-13T08:59:38.735Z,100236.03
2022-10-13T09:01:12.625Z,100234.44
2022-10-13T09:02:46.361Z,100235.97
2022-10-13T09:04:36.413Z,100234.22
2022-10-13T09:06:19.370Z,100233.16
2022-10-13T09:09:31.515Z,100235.19
2022-10-13T09:11:03.443Z,100245.28
2022-10-13T09:12:35.427Z,100238.81
2022-10-13T09:14:11.208Z,100238.88
2022-10-13T09:15:47.639Z,100242.03
2022-10-13T09:17:26.953Z,100245.47
2022-10-13T09:19:12.279Z,100244.63
2022-10-13T09:20:44.205Z,100241.88
2022-10-13T09:22:26.757Z,100244.81
2022-10-13T09:24:05.725Z,100247.50
2022-10-13T09:25:48.417Z,100238.81
2022-10-13T09:27:20.262Z,100244.22
2022-10-13T09:28:52.833Z,100234.97
2022-10-13T09:30:27.891Z,100239.41
2022-10-13T09:32:27.942Z,100238.00
2022-10-13T09:34:01.465Z,100248.19
2022-10-13T09:35:35.072Z,100229.88
2022-10-13T09:37:16.425Z,100248.72
2022-10-13T09:39:08.476Z,100249.34
2022-10-13T09:42:36.728Z,100243.50
2022-10-13T09:44:27.698Z,100239.06
2022-10-13T09:46:01.018Z,100238.25
2022-10-13T09:47:33.262Z,100234.56
2022-10-13T09:49:08.053Z,100242.44
2022-10-13T09:50:47.705Z,100245.06
2022-10-13T09:52:21.834Z,100232.75
2022-10-13T09:53:54.060Z,100240.31
2022-10-13T09:55:33.404Z,100237.28
2022-10-13T09:57:09.669Z,100238.03
2022-10-13T09:58:48.984Z,100235.22
2022-10-13T10:00:22.315Z,100234.56
2022-10-13T10:01:55.746Z,100235.41
2022-10-13T10:03:29.572Z,100233.53
2022-10-13T10:05:06.570Z,100231.72
2022-10-13T10:06:38.908Z,100233.69
2022-10-13T10:08:33.712Z,100223.94
2022-10-13T10:10:28.216Z,100225.06
2022-10-13T10:12:00.940Z,100221.16
2022-10-13T10:13:32.916Z,100224.28
2022-10-13T10:15:15.844Z,100223.78
2022-10-13T10:16:53.714Z,100223.38
2022-10-13T10:18:31.823Z,100216.03
2022-10-13T10:20:12.951Z,100217.84
2022-10-13T10:21:50.077Z,100213.03
2022-10-13T10:23:28.553Z,100218.66
2022-10-13T10:25:13.127Z,100215.78
2022-10-13T10:26:48.628Z,100221.72
2022-10-13T10:28:40.340Z,100213.75
2022-10-13T10:30:14.645Z,100212.09
2022-10-13T10:32:11.332Z,100211.25
2022-10-13T10:34:12.415Z,100211.69
2022-10-13T10:35:45.554Z,100213.06
2022-10-13T10:37:28.790Z,100208.63
2022-10-13T10:39:09.117Z,100205.69
2022-10-13T10:40:50.896Z,100209.47
2022-10-13T10:42:41.735Z,100199.28
2022-10-13T10:44:32.502Z,100194.38
2022-10-13T10:46:06.019Z,100200.09
2022-10-13T10:47:42.156Z,100199.91
2022-10-13T10:49:17.469Z,100195.41
2022-10-13T10:50:50.778Z,100197.03
2022-10-13T10:52:28.214Z,100196.09
2022-10-13T10:54:23.372Z,100197.53
2022-10-13T10:55:58.606Z,100188.78
2022-10-13T10:57:36.372Z,100193.22
2022-10-13T10:59:17.081Z,100179.84
2022-10-13T11:00:54.004Z,100183.59
2022-10-13T11:02:25.993Z,100181.03
2022-10-13T11:04:07.049Z,100177.72
2022-10-13T11:05:57.470Z,100179.59
2022-10-13T11:07:29.331Z,100180.84
2022-10-13T11:09:01.640Z,100177.38
2022-10-13T11:10:33.497Z,100176.22
2022-10-13T11:12:22.565Z,100172.66
2022-10-13T11:13:56.473Z,100169.53
2022-10-13T11:15:31.215Z,100169.56
2022-10-13T11:17:06.036Z,100166.16
2022-10-13T11:18:56.589Z,100159.91
2022-10-13T11:20:32.630Z,100156.28
2022-10-13T11:22:04.671Z,100155.47
2022-10-13T11:23:43.849Z,100153.88
2022-10-13T11:25:18.803Z,100159.22
2022-10-13T11:26:51.165Z,100150.63
2022-10-13T11:28:26.128Z,100149.47
2022-10-13T11:29:59.083Z,100148.41
2022-10-13T11:31:46.108Z,100149.88
2022-10-13T11:33:37.248Z,100146.75
2022-10-13T11:35:11.969Z,100148.00
2022-10-13T11:36:49.894Z,100139.09
2022-10-13T11:38:29.106Z,100133.94
2022-10-13T11:40:16.220Z,100130.56
2022-10-13T11:42:07.198Z,100133.81
2022-10-13T11:43:39.033Z,100137.03
2022-10-13T11:45:29.705Z,100131.16
2022-10-13T11:47:04.323Z,100130.19
2022-10-13T11:48:45.481Z,100121.38
2022-10-13T11:50:33.049Z,100118.00
2022-10-13T11:52:19.364Z,100119.69
2022-10-13T11:53:55.601Z,100118.09
2022-10-13T11:55:53.880Z,100117.56
2022-10-13T11:57:27.074Z,100113.72
2022-10-13T11:58:59.182Z,100111.41
2022-10-13T12:00:31.118Z,100107.31
2022-10-13T12:02:06.016Z,100103.59
2022-10-13T12:03:39.241Z,100093.78
2022-10-13T12:05:21.977Z,100100.41
2022-10-13T12:06:59.511Z,100102.59
2022-10-13T12:08:33.637Z,100106.81
2022-10-13T12:10:07.231Z,100099.81
2022-10-13T12:11:39.444Z,100094.03
2022-10-13T12:13:28.422Z,100103.66
2022-10-13T12:15:04.163Z,100093.69
2022-10-13T12:16:38.756Z,100092.63
2022-10-13T12:18:21.659Z,100092.81
2022-10-13T12:19:54.970Z,100092.09
2022-10-13T12:21:26.858Z,100090.34
2022-10-13T12:22:58.815Z,100087.28
2022-10-13T12:24:30.897Z,100084.97
2022-10-13T12:26:03.155Z,100083.34
2022-10-13T12:27:43.937Z,100081.09
2022-10-13T12:29:17.304Z,100081.28
2022-10-13T12:31:12.026Z,100066.56
2022-10-13T12:32:49.875Z,100067.78
2022-10-13T12:34:23.962Z,100077.63
2022-10-13T12:35:56.564Z,100071.09
2022-10-13T12:37:30.953Z,100065.19
2022-10-13T12:39:07.759Z,100067.00
2022-10-13T12:40:40.125Z,100061.72
2022-10-13T12:42:13.167Z,100061.44
2022-10-13T12:43:45.717Z,100060.91
2022-10-13T12:45:19.843Z,100060.97
2022-10-13T12:46:53.534Z,100057.66
2022-10-13T12:48:44.829Z,100060.41
2022-10-13T12:50:25.853Z,100057.66
2022-10-13T12:52:11.341Z,100061.63
2022-10-13T12:53:43.761Z,100056.63
2022-10-13T12:55:17.384Z,100056.53
2022-10-13T12:56:53.810Z,100047.56
2022-10-13T12:58:29.814Z,100054.16
2022-10-13T13:00:02.589Z,100046.56
2022-10-13T13:01:34.819Z,100048.78
2022-10-13T13:03:07.309Z,100051.22
2022-10-13T13:04:43.715Z,100046.44
2022-10-13T13:06:15.634Z,100049.59
2022-10-13T13:07:52.663Z,100040.34
2022-10-13T13:09:26.926Z,100039.41
2022-10-13T13:11:03.074Z,100045.41
2022-10-13T13:12:36.150Z,100040.34
2022-10-13T13:14:25.523Z,100037.25
2022-10-13T13:16:15.025Z,100030.06
2022-10-13T13:18:02.528Z,100028.28
2022-10-13T13:19:35.786Z,100034.22
2022-10-13T13:21:16.086Z,100028.50
2022-10-13T13:22:48.159Z,100034.50
2022-10-13T13:24:28.761Z,100028.81
2022-10-13T13:26:22.538Z,100024.31
2022-10-13T13:27:54.494Z,100023.28
2022-10-13T13:29:26.496Z,100016.75
2022-10-13T13:30:58.908Z,100013.00
2022-10-13T13:32:31.085Z,100017.34
2022-10-13T13:34:02.919Z,100022.28
2022-10-13T13:35:34.884Z,100021.75
2022-10-13T13:37:09.664Z,100017.72
2022-10-13T13:38:41.578Z,100013.03
2022-10-13T13:40:18.142Z,100018.16
2022-10-13T13:41:51.090Z,100015.91
2022-10-13T13:43:23.346Z,100015.91
2022-10-13T13:44:55.446Z,100017.34
2022-10-13T13:46:32.191Z,100013.28
2022-10-13T13:48:04.201Z,100012.09
2022-10-13T13:49:36.040Z,100015.53
2022-10-13T13:51:08.862Z,100009.44
2022-10-13T13:52:41.784Z,100010.75
2022-10-13T13:54:14.597Z,100002.50
2022-10-13T13:55:47.394Z,100007.41
2022-10-13T13:57:23.656Z,100007.53
2022-10-13T13:58:55.605Z,100008.22
2022-10-13T14:00:28.197Z,100002.72
2022-10-13T14:02:01.140Z,100004.06
2022-10-13T14:03:35.590Z,100008.00
2022-10-13T14:05:10.045Z,100008.72
2022-10-13T14:06:42.202Z,100007.41
2022-10-13T14:08:14.132Z,100014.22
2022-10-13T14:09:46.187Z,100013.38
2022-10-13T14:11:18.451Z,100009.34
2022-10-13T14:12:50.966Z,100011.59
2022-10-13T14:14:22.863Z,100001.41
2022-10-13T14:15:58.274Z,100001.53
2022-10-13T14:17:30.265Z,100005.81
2022-10-13T14:19:02.408Z,100002.47
2022-10-13T14:20:34.280Z,99997.78
2022-10-13T14:22:20.037Z,99998.72
2022-10-13T14:23:51.980Z,99994.66
2022-10-13T14:25:23.929Z,99995.50
2022-10-13T14:26:55.883Z,99996.88
2022-10-13T14:28:27.948Z,99991.63
2022-10-13T14:30:01.298Z,99997.34
2022-10-13T14:31:35.315Z,99995.41
2022-10-13T14:33:07.906Z,99987.28
2022-10-13T14:34:39.852Z,99987.28
2022-10-13T14:36:11.774Z,99988.09
2022-10-13T14:37:44.006Z,99982.53
2022-10-13T14:39:15.889Z,99981.06
2022-10-13T14:40:47.804Z,99983.00
2022-10-13T14:42:19.743Z,99975.34
2022-10-13T14:43:52.894Z,99977.78
2022-10-13T14:45:24.820Z,99985.59
2022-10-13T14:46:56.817Z,99974.88
2022-10-13T14:48:33.115Z,99981.88
2022-10-13T14:50:05.419Z,99979.28
2022-10-13T14:51:37.299Z,99978.84
2022-10-13T14:53:15.380Z,99973.84
2022-10-13T14:54:47.650Z,99976.00
2022-10-13T14:56:26.882Z,99976.81
2022-10-13T14:57:59.122Z,99970.00
2022-10-13T14:59:31.476Z,99965.94
2022-10-13T15:01:03.701Z,99965.81
2022-10-13T15:02:35.701Z,99974.66
2022-10-13T15:04:07.973Z,99966.91
2022-10-13T15:05:39.991Z,99969.56
2022-10-13T15:07:11.847Z,99970.53
2022-10-13T15:08:44.351Z,99962.66
2022-10-13T15:10:16.215Z,99963.66
2022-10-13T15:11:48.220Z,99968.09
2022-10-13T15:13:20.107Z,99961.44
2022-10-13T15:14:53.221Z,99953.44
2022-10-13T15:16:27.587Z,99960.50
2022-10-13T15:17:59.604Z,99962.91
2022-10-13T15:19:31.492Z,99958.25
2022-10-13T15:21:03.514Z,99961.28
2022-10-13T15:22:35.453Z,99952.56
2022-10-13T15:24:08.283Z,99960.88
2022-10-13T15:25:41.001Z,99956.97
2022-10-13T15:27:13.024Z,99956.59
2022-10-13T15:28:46.194Z,99960.28
2022-10-13T15:30:18.555Z,99957.16
2022-10-13T15:31:50.410Z,99958.13
2022-10-13T15:33:22.894Z,99962.38
2022-10-13T15:34:54.797Z,99957.00
2022-10-13T15:36:26.741Z,99954.22
2022-10-13T15:37:58.693Z,99951.47
2022-10-13T15:39:30.643Z,99948.78
2022-10-13T15:41:04.202Z,99950.06
2022-10-13T15:42:36.137Z,99950.75
2022-10-13T15:44:08.050Z,99948.06
2022-10-13T15:45:40.134Z,99952.88
2022-10-13T15:47:16.983Z,99948.75
2022-10-13T15:48:50.037Z,99954.47
2022-10-13T15:50:21.905Z,99954.75
2022-10-13T15:51:53.947Z,99950.22
2022-10-13T15:53:26.019Z,99953.09
2022-10-13T15:54:58.016Z,99947.84
2022-10-13T15:56:30.017Z,99949.88
2022-10-13T15:58:02.111Z,99938.25
2022-10-13T15:59:33.979Z,99941.03
2022-10-13T16:01:10.168Z,99946.66
2022-10-13T16:02:43.002Z,99940.53
2022-10-13T16:04:14.993Z,99939.25
2022-10-13T16:05:47.023Z,99942.13
2022-10-13T16:07:18.923Z,99938.28
2022-10-13T16:08:51.072Z,99937.84
2022-10-13T16:10:23.153Z,99937.28
2022-10-13T16:11:54.993Z,99939.44
2022-10-13T16:13:26.940Z,99943.75
2022-10-13T16:14:58.985Z,99944.03
2022-10-13T16:16:30.982Z,99944.91
2022-10-13T16:18:02.916Z,99938.59
2022-10-13T16:19:34.837Z,99943.03
2022-10-13T16:21:17.418Z,99943.03
2022-10-13T16:22:50.407Z,99949.22
2022-10-13T16:24:22.316Z,99950.50
2022-10-13T16:25:54.250Z,99948.50
2022-10-13T16:27:27.222Z,99937.44
2022-10-13T16:28:59.261Z,99946.91
2022-10-13T16:30:31.175Z,99944.88
2022-10-13T16:32:03.149Z,99948.34
2022-10-13T16:33:35.696Z,99944.44
2022-10-13T16:35:07.936Z,99942.31
2022-10-13T16:36:39.871Z,99944.78
2022-10-13T16:38:11.838Z,99947.34
2022-10-13T16:39:46.563Z,99949.06
2022-10-13T16:41:22.670Z,99946.91
2022-10-13T16:42:54.619Z,99955.53
2022-10-13T16:44:26.593Z,99951.66
2022-10-13T16:46:00.399Z,99952.66
2022-10-13T16:47:32.534Z,99944.00
2022-10-13T16:49:04.483Z,99950.31
2022-10-13T16:50:37.759Z,99947.00
2022-10-13T16:52:09.681Z,99939.38
2022-10-13T16:53:41.987Z,99942.13
2022-10-13T16:55:15.390Z,99947.47
2022-10-13T16:56:47.272Z,99941.03
2022-10-13T16:58:19.289Z,99949.50
2022-10-13T16:59:51.223Z,99948.19
2022-10-13T17:01:23.610Z,99948.91
2022-10-13T17:02:55.559Z,99953.81
2022-10-13T17:04:27.504Z,99949.78
2022-10-13T17:05:59.462Z,99947.63
2022-10-13T17:07:31.302Z,99950.50
2022-10-13T17:09:03.950Z,99947.88
2022-10-13T17:10:35.970Z,99954.91
2022-10-13T17:12:08.216Z,99945.44
2022-10-13T17:13:40.072Z,99949.00
2022-10-13T17:15:12.329Z,99953.28
2022-10-13T17:16:45.238Z,99950.13
2022-10-13T17:18:17.670Z,99942.78
2022-10-13T17:19:50.167Z,99943.59
2022-10-13T17:21:22.281Z,99949.19
2022-10-13T17:22:54.696Z,99953.34
2022-10-13T17:24:26.877Z,99945.38
2022-10-13T17:26:17.445Z,99948.94
2022-10-13T17:27:49.413Z,99945.63
2022-10-13T17:29:21.274Z,99937.69
2022-10-13T17:31:06.995Z,99942.66
2022-10-13T17:32:39.196Z,99940.22
2022-10-13T17:34:11.320Z,99940.44
2022-10-13T17:35:43.131Z,99950.31
2022-10-13T17:37:15.110Z,99949.28
2022-10-13T17:38:48.597Z,99947.53
2022-10-13T17:40:20.606Z,99947.94
2022-10-13T17:41:52.573Z,99947.63
2022-10-13T17:43:24.530Z,99947.31
2022-10-13T17:44:56.893Z,99943.53
2022-10-13T17:46:38.752Z,99954.13
2022-10-13T17:48:14.148Z,99947.06
2022-10-13T17:49:46.362Z,99944.19
2022-10-13T17:51:21.349Z,99942.59
2022-10-13T17:52:53.437Z,99949.19
2022-10-13T17:54:25.283Z,99946.13
2022-10-13T17:56:01.110Z,99948.66
2022-10-13T17:57:33.050Z,99955.22
2022-10-13T17:59:07.502Z,99944.75
2022-10-13T18:01:00.755Z,99950.03
2022-10-13T18:02:31.500Z,99951.31
2022-10-13T18:04:04.739Z,99949.16
2022-10-13T18:05:41.247Z,99941.53
2022-10-13T18:07:13.230Z,99943.16
2022-10-13T18:08:45.393Z,99941.28
2022-10-13T18:10:18.014Z,99945.63
2022-10-13T18:11:52.122Z,99939.66
2022-10-13T18:13:23.967Z,99946.66